createdAt,value
2022-10-15T00:01:39.408Z,13.30
2022-10-15T00:04:42.232Z,13.30
2022-10-15T00:07:45.007Z,13.30
2022-10-15T00:10:47.758Z,13.30
2022-10-15T00:13:53.635Z,13.30
2022-10-15T00:16:56.416Z,13.40
2022-10-15T00:19:59.228Z,13.30
2022-10-15T00:23:02.034Z,13.30
2022-10-15T00:26:06.944Z,13.30
2022-10-15T00:29:11.152Z,13.30
2022-10-15T00:32:14.501Z,13.30
2022-10-15T00:35:17.395Z,13.30
2022-10-15T00:38:20.135Z,13.20
2022-10-15T00:41:25.383Z,13.20
2022-10-15T00:44:54.618Z,13.20
2022-10-15T00:47:57.633Z,13.20
2022-10-15T00:51:03.513Z,13.20
2022-10-15T00:54:07.335Z,13.20
2022-10-15T00:57:12.052Z,13.20
2022-10-15T01:00:18.226Z,13.20
2022-10-15T01:03:21.577Z,13.20
2022-10-15T01:06:25.228Z,13.10
2022-10-15T01:09:28.529Z,13.10
2022-10-15T01:12:44.252Z,13.10
2022-10-15T01:15:55.395Z,13.10
2022-10-15T01:19:03.062Z,13.10
2022-10-15T01:22:09.180Z,13.10
2022-10-15T01:25:25.529Z,13.10
2022-10-15T01:28:41.761Z,13.10
2022-10-15T01:31:53.225Z,13.10
2022-10-15T01:34:59.917Z,13.10
2022-10-15T01:38:15.156Z,13.10
2022-10-15T01:41:23.815Z,13.10
2022-10-15T01:44:32.296Z,13.20
2022-10-15T01:47:42.407Z,13.20
2022-10-15T01:50:47.901Z,13.20
2022-10-15T01:53:52.002Z,13.20
2022-10-15T01:56:56.966Z,13.20
2022-10-15T02:00:01.215Z,13.20
2022-10-15T02:03:05.845Z,13.30
2022-10-15T02:06:14.380Z,13.30
2022-10-15T02:09:25.812Z,13.20
2022-10-15T02:12:47.456Z,13.30
2022-10-15T02:15:59.776Z,13.30
2022-10-15T02:19:09.139Z,13.30
2022-10-15T02:22:16.650Z,13.30
2022-10-15T02:25:23.381Z,13.30
2022-10-15T02:28:28.716Z,13.30
2022-10-15T02:31:34.808Z,13.30
2022-10-15T02:34:40.022Z,13.40
2022-10-15T02:37:47.547Z,13.30
2022-10-15T02:40:51.009Z,13.30
2022-10-15T02:43:54.069Z,13.30
2022-10-15T02:46:58.567Z,13.30
2022-10-15T02:50:02.800Z,13.30
2022-10-15T02:53:05.966Z,13.30
2022-10-15T02:56:08.940Z,13.30
2022-10-15T02:59:11.800Z,13.30
2022-10-15T03:02:16.931Z,13.30
2022-10-15T03:05:23.339Z,13.30
2022-10-15T03:08:26.132Z,13.30
2022-10-15T03:11:29.311Z,13.30
2022-10-15T03:14:32.084Z,13.30
2022-10-15T03:17:34.887Z,13.30
2022-10-15T03:20:39.205Z,13.30
2022-10-15T03:23:42.085Z,13.30
2022-10-15T03:26:44.915Z,13.30
2022-10-15T03:29:47.635Z,13.30
2022-10-15T03:32:50.457Z,13.30
2022-10-15T03:35:54.699Z,13.30
2022-10-15T03:38:57.585Z,13.20
2022-10-15T03:42:00.380Z,13.20
2022-10-15T03:45:03.145Z,13.20
2022-10-15T03:48:06.792Z,13.20
2022-10-15T03:51:10.903Z,13.10
2022-10-15T03:54:13.700Z,13.10
2022-10-15T03:57:16.619Z,13.10
2022-10-15T04:00:19.604Z,13.10
2022-10-15T04:03:22.363Z,13.10
2022-10-15T04:06:26.467Z,13.10
2022-10-15T04:09:29.269Z,13.10
2022-10-15T04:12:32.060Z,13.10
2022-10-15T04:15:34.872Z,13.10
2022-10-15T04:18:37.631Z,13.20
2022-10-15T04:21:41.899Z,13.20
2022-10-15T04:24:44.756Z,13.20
2022-10-15T04:27:47.506Z,13.20
2022-10-15T04:30:50.267Z,13.20
2022-10-15T04:33:53.042Z,13.10
2022-10-15T04:36:57.238Z,13.20
2022-10-15T04:39:59.989Z,13.10
2022-10-15T04:43:02.770Z,13.20
2022-10-15T04:46:07.256Z,13.20
2022-10-15T04:49:10.210Z,13.20
2022-10-15T04:52:14.935Z,13.20
2022-10-15T04:55:17.855Z,13.20
2022-10-15T04:58:20.676Z,13.20
2022-10-15T05:01:24.644Z,13.20
2022-10-15T05:04:27.743Z,13.20
2022-10-15T05:07:31.867Z,13.20
2022-10-15T05:10:34.595Z,13.20
2022-10-15T05:13:37.511Z,13.20
2022-10-15T05:16:40.524Z,13.20
2022-10-15T05:19:43.351Z,13.10
2022-10-15T05:22:47.657Z,13.10
2022-10-15T05:25:53.274Z,13.10
2022-10-15T05:28:58.198Z,13.10
2022-10-15T05:32:00.992Z,13.10
2022-10-15T05:35:03.821Z,13.10
2022-10-15T05:38:08.144Z,13.10
2022-10-15T05:41:11.252Z,13.20
2022-10-15T05:44:14.060Z,13.20
2022-10-15T05:47:16.977Z,13.20
2022-10-15T05:50:19.937Z,13.20
2022-10-15T05:53:24.094Z,13.20
2022-10-15T05:56:27.576Z,13.20
2022-10-15T05:59:30.381Z,13.20
2022-10-15T06:02:33.274Z,13.30
2022-10-15T06:05:36.142Z,13.30
2022-10-15T06:08:40.264Z,13.20
2022-10-15T06:11:43.006Z,13.30
2022-10-15T06:14:45.776Z,13.30
2022-10-15T06:17:48.468Z,13.40
2022-10-15T06:20:52.951Z,13.40
2022-10-15T06:23:57.068Z,13.40
2022-10-15T06:27:00.275Z,13.40
2022-10-15T06:30:03.356Z,13.40
2022-10-15T06:33:06.153Z,13.40
2022-10-15T06:36:11.080Z,13.50
2022-10-15T06:39:15.217Z,13.50
2022-10-15T06:42:18.183Z,13.60
2022-10-15T06:45:21.949Z,13.70
2022-10-15T06:48:24.859Z,13.60
2022-10-15T06:51:27.704Z,13.70
2022-10-15T06:54:31.955Z,13.70
2022-10-15T06:57:34.757Z,13.70
2022-10-15T07:00:37.570Z,13.80
2022-10-15T07:03:40.357Z,13.70
2022-10-15T07:06:43.314Z,13.80
2022-10-15T07:09:47.983Z,13.80
2022-10-15T07:12:50.926Z,13.80
2022-10-15T07:15:55.882Z,14.00
2022-10-15T07:18:58.754Z,14.10
2022-10-15T07:22:01.489Z,14.30
2022-10-15T07:25:06.215Z,14.40
2022-10-15T07:28:08.999Z,14.40
2022-10-15T07:31:11.800Z,14.50
2022-10-15T07:34:14.735Z,14.50
2022-10-15T07:37:17.545Z,14.60
2022-10-15T07:40:22.164Z,14.70
2022-10-15T07:43:25.017Z,14.80
2022-10-15T07:46:27.983Z,14.80
2022-10-15T07:49:30.774Z,14.90
2022-10-15T08:06:25.089Z,15.20
2022-10-15T08:09:27.879Z,15.30
2022-10-15T08:12:32.200Z,15.40
2022-10-15T08:15:34.974Z,15.50
2022-10-15T08:18:38.249Z,15.50
2022-10-15T08:21:42.795Z,15.70
2022-10-15T08:24:47.971Z,15.80
2022-10-15T08:27:54.273Z,15.90
2022-10-15T08:31:02.715Z,16.10
2022-10-15T08:34:08.818Z,16.30
2022-10-15T08:37:11.791Z,16.40
2022-10-15T08:40:16.299Z,16.50
2022-10-15T08:43:25.894Z,16.50
2022-10-15T08:46:36.420Z,16.60
2022-10-15T08:49:45.865Z,16.70
2022-10-15T08:52:50.664Z,16.70
2022-10-15T08:55:58.888Z,16.80
2022-10-15T08:59:09.856Z,16.80
2022-10-15T09:02:19.252Z,16.80
2022-10-15T09:05:33.054Z,16.80
2022-10-15T09:08:43.229Z,16.90
2022-10-15T09:11:58.977Z,17.00
2022-10-15T09:15:06.044Z,17.00
2022-10-15T09:18:18.275Z,17.00
2022-10-15T09:21:23.022Z,17.10
2022-10-15T09:24:29.880Z,17.20
2022-10-15T09:27:35.200Z,17.20
2022-10-15T09:30:47.533Z,17.30
2022-10-15T09:33:54.673Z,17.30
2022-10-15T09:37:01.704Z,17.40
2022-10-15T09:40:23.175Z,17.50
2022-10-15T09:43:33.652Z,17.50
2022-10-15T09:46:44.903Z,17.50
2022-10-15T09:49:47.710Z,17.60
2022-10-15T09:53:04.673Z,17.90
2022-10-15T09:56:14.167Z,18.10
2022-10-15T09:59:18.474Z,18.40
2022-10-15T10:02:24.261Z,18.30
2022-10-15T10:05:30.891Z,18.30
2022-10-15T10:08:38.336Z,18.50
2022-10-15T10:11:50.811Z,18.40
2022-10-15T10:14:56.888Z,18.40
2022-10-15T10:18:01.677Z,18.50
2022-10-15T10:21:06.157Z,18.40
2022-10-15T10:24:28.362Z,18.30
2022-10-15T10:27:31.617Z,18.30
2022-10-15T10:30:37.111Z,18.30
2022-10-15T10:33:47.687Z,18.40
2022-10-15T10:36:52.197Z,18.30
2022-10-15T10:39:57.300Z,18.30
2022-10-15T10:43:25.106Z,18.20
2022-10-15T10:46:27.916Z,18.30
2022-10-15T10:49:37.718Z,18.30
2022-10-15T10:52:40.986Z,18.30
2022-10-15T10:55:46.369Z,18.40
2022-10-15T10:58:54.246Z,18.60
2022-10-15T11:01:57.584Z,18.60
2022-10-15T11:05:01.753Z,18.60
2022-10-15T11:08:13.630Z,18.70
2022-10-15T11:11:22.800Z,18.70
2022-10-15T11:14:33.695Z,18.80
2022-10-15T11:17:48.430Z,18.80
2022-10-15T11:21:06.764Z,18.70
2022-10-15T11:24:16.016Z,18.70
2022-10-15T11:27:33.793Z,18.80
2022-10-15T11:30:49.216Z,18.80
2022-10-15T11:34:03.964Z,18.80
2022-10-15T11:37:21.224Z,18.80
2022-10-15T11:40:34.754Z,18.80
2022-10-15T11:43:52.576Z,18.80
2022-10-15T11:47:10.219Z,18.90
2022-10-15T11:50:26.861Z,18.90
2022-10-15T11:53:51.068Z,19.00
2022-10-15T11:56:54.971Z,19.10
2022-10-15T12:00:02.781Z,19.10
2022-10-15T12:03:13.148Z,19.10
2022-10-15T12:06:19.886Z,19.00
2022-10-15T12:09:29.648Z,19.00
2022-10-15T12:12:40.189Z,19.10
2022-10-15T12:15:48.532Z,19.10
2022-10-15T12:18:56.335Z,19.10
2022-10-15T12:22:09.554Z,19.00
2022-10-15T12:25:46.120Z,19.00
2022-10-15T12:28:51.369Z,19.10
2022-10-15T12:31:57.005Z,19.00
2022-10-15T12:35:03.604Z,19.00
2022-10-15T12:38:21.287Z,18.90
2022-10-15T12:41:36.575Z,18.90
2022-10-15T12:44:39.773Z,18.90
2022-10-15T12:47:50.042Z,18.80
2022-10-15T12:51:42.428Z,18.80
2022-10-15T12:54:46.213Z,18.90
2022-10-15T12:57:55.649Z,18.90
2022-10-15T13:00:58.468Z,18.90
2022-10-15T13:04:02.039Z,18.90
2022-10-15T13:07:05.662Z,18.90
2022-10-15T13:10:21.609Z,18.90
2022-10-15T13:13:28.891Z,18.90
2022-10-15T13:16:32.372Z,18.90
2022-10-15T13:19:39.690Z,19.00
2022-10-15T13:22:42.459Z,19.00
2022-10-15T13:25:45.369Z,19.00
2022-10-15T13:28:50.935Z,18.90
2022-10-15T13:31:56.990Z,18.80
2022-10-15T13:35:00.961Z,18.90
2022-10-15T13:38:05.608Z,18.90
2022-10-15T13:41:09.317Z,18.90
2022-10-15T13:44:23.115Z,18.90
2022-10-15T13:47:31.122Z,18.90
2022-10-15T13:50:35.690Z,18.80
2022-10-15T13:53:42.520Z,18.60
2022-10-15T13:56:51.449Z,18.60
2022-10-15T13:59:55.641Z,18.50
2022-10-15T14:03:15.943Z,18.40
2022-10-15T14:06:20.637Z,18.40
2022-10-15T14:09:27.133Z,18.40
2022-10-15T14:12:29.906Z,18.40
2022-10-15T14:15:49.668Z,18.60
2022-10-15T14:18:54.546Z,18.70
2022-10-15T14:21:57.929Z,18.70
2022-10-15T14:25:01.987Z,18.60
2022-10-15T14:28:05.003Z,18.60
2022-10-15T14:31:09.221Z,18.40
2022-10-15T14:34:36.064Z,18.40
2022-10-15T14:37:41.798Z,18.30
2022-10-15T14:40:58.074Z,18.30
2022-10-15T14:44:06.912Z,18.30
2022-10-15T14:47:19.935Z,18.40
2022-10-15T14:50:26.417Z,18.40
2022-10-15T14:53:32.680Z,18.40
2022-10-15T14:56:36.614Z,18.50
2022-10-15T14:59:39.615Z,18.40
2022-10-15T15:02:44.109Z,18.30
2022-10-15T15:05:48.452Z,18.20
2022-10-15T15:08:51.191Z,18.00
2022-10-15T15:11:54.009Z,17.90
2022-10-15T15:14:56.756Z,17.90
2022-10-15T15:18:00.897Z,17.80
2022-10-15T15:21:07.361Z,17.80
2022-10-15T15:24:11.016Z,17.70
2022-10-15T15:27:23.752Z,17.70
2022-10-15T15:30:29.067Z,17.70
2022-10-15T15:33:33.829Z,17.60
2022-10-15T15:36:36.621Z,17.70
2022-10-15T15:39:39.413Z,17.60
2022-10-15T15:42:43.145Z,17.50
2022-10-15T15:45:46.986Z,17.40
2022-10-15T15:48:51.088Z,17.30
2022-10-15T15:51:53.975Z,17.20
2022-10-15T15:54:56.716Z,17.20
2022-10-15T15:57:59.584Z,17.10
2022-10-15T16:01:03.550Z,17.00
2022-10-15T16:04:07.954Z,17.00
2022-10-15T16:07:13.371Z,16.90
2022-10-15T16:10:16.484Z,16.80
2022-10-15T16:13:19.298Z,16.80
2022-10-15T16:16:22.216Z,16.70
2022-10-15T16:19:26.430Z,16.60
2022-10-15T16:22:29.221Z,16.50
2022-10-15T16:25:32.044Z,16.50
2022-10-15T16:28:34.865Z,16.40
2022-10-15T16:31:37.991Z,16.30
2022-10-15T16:34:42.196Z,16.30
2022-10-15T16:37:45.141Z,16.20
2022-10-15T16:40:48.205Z,16.10
2022-10-15T16:43:51.311Z,16.00
2022-10-15T16:46:54.046Z,16.00
2022-10-15T16:49:58.208Z,15.80
2022-10-15T16:53:00.968Z,15.80
2022-10-15T16:56:06.776Z,15.80
2022-10-15T16:59:09.826Z,15.70
2022-10-15T17:02:12.640Z,15.60
2022-10-15T17:05:17.165Z,15.60
2022-10-15T17:08:22.310Z,15.50
2022-10-15T17:11:27.236Z,15.50
2022-10-15T17:14:30.179Z,15.40
2022-10-15T17:17:33.016Z,15.40
2022-10-15T17:20:44.563Z,15.40
2022-10-15T17:23:48.167Z,15.30
2022-10-15T17:26:50.944Z,15.30
2022-10-15T17:29:53.753Z,15.20
2022-10-15T17:32:56.521Z,15.20
2022-10-15T17:36:04.539Z,15.10
2022-10-15T17:39:07.314Z,15.10
2022-10-15T17:42:10.123Z,15.10
2022-10-15T17:45:13.305Z,15.10
2022-10-15T17:48:16.065Z,15.00
2022-10-15T17:51:22.438Z,15.00
2022-10-15T17:54:25.182Z,14.90
2022-10-15T17:57:29.017Z,14.90
2022-10-15T18:00:31.909Z,14.90
2022-10-15T18:03:34.648Z,14.80
2022-10-15T18:06:38.815Z,14.80
2022-10-15T18:09:41.584Z,14.80
2022-10-15T18:12:44.479Z,14.80
2022-10-15T18:15:48.772Z,14.70
2022-10-15T18:18:52.476Z,14.70
2022-10-15T18:21:57.000Z,14.60
2022-10-15T18:24:59.764Z,14.70
2022-10-15T18:28:02.589Z,14.70
2022-10-15T18:31:07.760Z,14.60
2022-10-15T18:34:10.651Z,14.60
2022-10-15T18:37:14.789Z,14.60
2022-10-15T18:40:17.816Z,14.60
2022-10-15T18:43:20.619Z,14.50
2022-10-15T18:46:23.975Z,14.60
2022-10-15T18:49:26.787Z,14.60
2022-10-15T18:52:40.267Z,14.60
2022-10-15T18:55:43.438Z,14.60
2022-10-15T18:58:46.644Z,14.60
2022-10-15T19:01:49.616Z,14.70
2022-10-15T19:04:52.509Z,14.70
2022-10-15T19:07:56.612Z,14.60
2022-10-15T19:11:04.788Z,14.60
2022-10-15T19:14:08.179Z,14.60
2022-10-15T19:17:11.105Z,14.80
2022-10-15T19:20:14.097Z,14.80
2022-10-15T19:23:18.264Z,14.80
2022-10-15T19:26:21.086Z,14.80
2022-10-15T19:29:23.973Z,14.70
2022-10-15T19:32:26.804Z,14.70
2022-10-15T19:35:29.539Z,14.80
2022-10-15T19:38:34.514Z,14.80
2022-10-15T19:41:37.939Z,14.80
2022-10-15T19:44:40.698Z,14.90
2022-10-15T19:47:43.736Z,14.90
2022-10-15T19:50:47.949Z,15.00
2022-10-15T19:53:54.257Z,15.00
2022-10-15T19:56:57.053Z,15.10
2022-10-15T19:59:59.953Z,15.10
2022-10-15T20:03:02.957Z,15.10
2022-10-15T20:06:07.836Z,15.10
2022-10-15T20:09:11.918Z,15.10
2022-10-15T20:12:14.699Z,15.20
2022-10-15T20:15:17.548Z,15.20
2022-10-15T20:18:22.003Z,15.30
2022-10-15T20:21:24.914Z,15.30
2022-10-15T20:24:29.108Z,15.40
2022-10-15T20:27:31.853Z,15.40
2022-10-15T20:30:34.635Z,15.40
2022-10-15T20:33:38.175Z,15.40
2022-10-15T20:36:41.516Z,15.40
2022-10-15T20:39:45.706Z,15.40
2022-10-15T20:42:48.539Z,15.40
2022-10-15T20:45:51.398Z,15.30
2022-10-15T20:48:55.429Z,15.30
2022-10-15T20:51:59.338Z,15.20
2022-10-15T20:55:03.876Z,15.20
2022-10-15T20:58:06.697Z,15.10
2022-10-15T21:01:10.159Z,15.10
2022-10-15T21:04:13.004Z,15.10
2022-10-15T21:07:15.820Z,15.10
2022-10-15T21:10:20.041Z,15.10
2022-10-15T21:13:24.222Z,15.10
2022-10-15T21:16:28.374Z,15.00
2022-10-15T21:19:31.573Z,15.00
2022-10-15T21:22:34.292Z,14.90
2022-10-15T21:28:46.362Z,14.80
2022-10-15T21:31:49.367Z,14.80
2022-10-15T21:34:52.125Z,14.80
2022-10-15T21:37:54.897Z,14.80
2022-10-15T21:40:58.977Z,14.70
2022-10-15T21:44:02.354Z,14.80
2022-10-15T21:47:05.377Z,14.80
2022-10-15T21:50:08.677Z,14.80
2022-10-15T21:53:11.461Z,14.80
2022-10-15T21:56:15.715Z,14.80
2022-10-15T21:59:18.509Z,14.80
2022-10-15T22:02:21.258Z,14.80
2022-10-15T22:05:24.019Z,14.80
2022-10-15T22:08:28.630Z,14.80
2022-10-15T22:11:35.109Z,14.80
2022-10-15T22:14:37.863Z,14.80
2022-10-15T22:17:40.633Z,14.80
2022-10-15T22:20:43.359Z,14.80
2022-10-15T22:23:48.109Z,14.90
2022-10-15T22:26:53.877Z,14.90
2022-10-15T22:29:56.673Z,14.90
2022-10-15T22:32:59.432Z,14.90
2022-10-15T22:36:02.868Z,14.90
2022-10-15T22:39:07.681Z,14.90
2022-10-15T22:42:11.740Z,14.90
2022-10-15T22:45:14.693Z,14.80
2022-10-15T22:48:17.509Z,14.80
2022-10-15T22:51:20.909Z,14.70
2022-10-15T22:54:24.160Z,14.70
2022-10-15T22:57:28.252Z,14.60
2022-10-15T23:00:31.269Z,14.70
2022-10-15T23:03:34.025Z,14.60
2022-10-15T23:06:38.645Z,14.60
2022-10-15T23:09:41.617Z,14.60
2022-10-15T23:12:45.737Z,14.60
2022-10-15T23:15:48.440Z,14.60
2022-10-15T23:18:54.645Z,14.60
2022-10-15T23:21:57.848Z,14.60
2022-10-15T23:25:00.800Z,14.60
2022-10-15T23:28:05.625Z,14.60
2022-10-15T23:31:08.563Z,14.70
2022-10-15T23:34:15.240Z,14.70
2022-10-15T23:37:18.454Z,14.70
2022-10-15T23:40:21.195Z,14.70
2022-10-15T23:43:25.340Z,14.70
2022-10-15T23:46:28.200Z,14.80
2022-10-15T23:49:31.184Z,14.80
2022-10-15T23:52:34.006Z,14.80
2022-10-15T23:55:39.636Z,14.80
2022-10-15T23:58:44.219Z,14.80
